createdAt,value
2019-03-29T00:04:52.958Z,14.30
2019-03-29T00:09:59.400Z,10.25
2019-03-29T00:15:05.408Z,11.40
2019-03-29T00:20:11.447Z,9.98
2019-03-29T00:25:17.569Z,8.83
2019-03-29T00:30:23.406Z,11.05
2019-03-29T00:35:29.192Z,11.13
2019-03-29T00:40:35.446Z,11.67
2019-03-29T00:45:42.271Z,12.50
2019-03-29T00:50:48.358Z,10.82
2019-03-29T00:55:54.190Z,18.80
2019-03-29T01:01:00.297Z,15.90
2019-03-29T01:06:06.225Z,14.85
2019-03-29T01:11:12.265Z,11.65
2019-03-29T01:16:18.119Z,12.98
2019-03-29T01:21:25.770Z,18.42
2019-03-29T01:26:31.614Z,17.02
2019-03-29T01:31:37.508Z,15.35
2019-03-29T01:36:43.546Z,11.73
2019-03-29T01:41:49.578Z,11.50
2019-03-29T01:46:55.459Z,12.07
2019-03-29T01:52:01.712Z,14.78
2019-03-29T01:57:07.528Z,15.60
2019-03-29T02:02:13.373Z,10.18
2019-03-29T02:07:19.382Z,11.00
2019-03-29T02:12:25.298Z,13.50
2019-03-29T02:17:31.212Z,14.65
2019-03-29T02:22:37.398Z,11.93
2019-03-29T02:27:43.311Z,12.67
2019-03-29T02:32:49.546Z,12.93
2019-03-29T02:37:56.430Z,12.20
2019-03-29T02:43:02.767Z,9.30
2019-03-29T02:48:08.647Z,10.35
2019-03-29T02:53:14.721Z,12.03
2019-03-29T02:58:21.764Z,8.88
2019-03-29T03:03:27.870Z,9.30
2019-03-29T03:08:33.761Z,9.30
2019-03-29T03:13:40.646Z,11.85
2019-03-29T03:18:46.710Z,10.43
2019-03-29T03:23:52.623Z,9.75
2019-03-29T03:28:58.462Z,11.05
2019-03-29T03:34:04.724Z,10.35
2019-03-29T03:39:11.067Z,8.65
2019-03-29T03:44:17.049Z,10.72
2019-03-29T03:49:23.120Z,12.50
2019-03-29T03:54:28.937Z,10.17
2019-03-29T03:59:37.037Z,10.58
2019-03-29T04:04:43.226Z,11.63
2019-03-29T04:09:50.742Z,9.40
2019-03-29T04:14:56.648Z,10.45
2019-03-29T04:20:02.489Z,10.90
2019-03-29T04:25:09.465Z,11.95
2019-03-29T04:30:15.651Z,10.20
2019-03-29T04:35:21.459Z,11.25
2019-03-29T04:40:27.406Z,8.87
2019-03-29T04:45:33.468Z,10.35
2019-03-29T04:50:39.299Z,9.67
2019-03-29T04:55:45.172Z,8.60
2019-03-29T05:00:52.283Z,12.45
2019-03-29T05:05:58.178Z,10.93
2019-03-29T05:11:04.605Z,10.28
2019-03-29T05:16:10.585Z,10.35
2019-03-29T05:21:16.612Z,9.80
2019-03-29T05:26:25.316Z,10.95
2019-03-29T05:31:32.322Z,12.78
2019-03-29T05:36:38.471Z,11.80
2019-03-29T05:41:45.987Z,10.72
2019-03-29T05:46:51.868Z,12.47
2019-03-29T05:51:59.171Z,13.95
2019-03-29T05:57:07.114Z,11.75
2019-03-29T06:02:18.957Z,12.00
2019-03-29T06:07:25.099Z,12.07
2019-03-29T06:12:31.226Z,16.50
2019-03-29T06:17:48.071Z,16.05
2019-03-29T06:22:44.711Z,11.80
2019-03-29T06:27:50.605Z,11.55
2019-03-29T06:32:56.633Z,11.43
2019-03-29T06:38:03.756Z,15.70
2019-03-29T06:43:09.562Z,14.25
2019-03-29T06:48:15.679Z,14.65
2019-03-29T06:53:21.634Z,10.15
2019-03-29T06:58:29.469Z,12.27
2019-03-29T07:03:35.641Z,14.77
2019-03-29T07:08:42.009Z,16.30
2019-03-29T07:13:57.249Z,12.68
2019-03-29T07:18:56.897Z,16.37
2019-03-29T07:24:03.299Z,14.80
2019-03-29T07:29:09.408Z,15.80
2019-03-29T07:34:15.731Z,22.55
2019-03-29T07:39:21.946Z,11.78
2019-03-29T07:44:28.673Z,15.10
2019-03-29T07:49:35.912Z,16.25
2019-03-29T07:54:42.293Z,14.57
2019-03-29T07:59:49.871Z,14.07
2019-03-29T08:04:57.146Z,12.30
2019-03-29T08:10:04.082Z,12.60
2019-03-29T08:15:10.250Z,11.85
2019-03-29T08:20:38.904Z,16.00
2019-03-29T08:25:25.348Z,14.65
2019-03-29T08:30:31.364Z,14.85
2019-03-29T08:35:37.276Z,15.28
2019-03-29T08:40:45.249Z,14.33
2019-03-29T08:45:50.934Z,15.50
2019-03-29T08:50:57.341Z,15.45
2019-03-29T08:56:03.171Z,15.35
2019-03-29T09:01:09.068Z,13.45
2019-03-29T09:06:16.196Z,14.70
2019-03-29T09:11:23.149Z,13.63
2019-03-29T09:16:29.397Z,14.50
2019-03-29T09:21:35.428Z,14.10
2019-03-29T09:26:41.579Z,15.50
2019-03-29T09:31:47.546Z,13.98
2019-03-29T09:36:53.797Z,13.20
2019-03-29T09:41:59.734Z,11.50
2019-03-29T09:47:06.582Z,11.37
2019-03-29T09:52:12.885Z,12.63
2019-03-29T09:57:19.250Z,12.37
2019-03-29T10:02:25.117Z,11.88
2019-03-29T10:07:31.062Z,11.18
2019-03-29T10:12:43.890Z,10.10
2019-03-29T10:17:45.577Z,9.25
2019-03-29T10:22:51.540Z,8.93
2019-03-29T10:27:57.428Z,9.73
2019-03-29T10:33:03.290Z,8.40
2019-03-29T10:38:09.152Z,8.08
2019-03-29T10:43:15.476Z,7.03
2019-03-29T10:48:21.304Z,8.13
2019-03-29T10:53:28.886Z,7.00
2019-03-29T10:58:34.952Z,7.08
2019-03-29T11:03:40.736Z,8.47
2019-03-29T11:08:46.941Z,7.80
2019-03-29T11:13:52.845Z,8.23
2019-03-29T11:18:59.112Z,9.55
2019-03-29T11:24:08.867Z,7.37
2019-03-29T11:29:12.876Z,7.17
2019-03-29T11:34:20.948Z,7.78
2019-03-29T11:39:27.611Z,10.03
2019-03-29T11:44:33.640Z,8.70
2019-03-29T11:49:39.467Z,6.90
2019-03-29T11:54:45.551Z,6.97
2019-03-29T11:59:51.644Z,11.65
2019-03-29T12:04:57.682Z,8.03
2019-03-29T12:10:03.981Z,6.90
2019-03-29T12:15:10.233Z,6.62
2019-03-29T12:20:16.146Z,6.80
2019-03-29T12:25:22.788Z,4.80
2019-03-29T12:30:32.164Z,5.30
2019-03-29T12:35:37.165Z,5.12
2019-03-29T12:40:45.180Z,4.80
2019-03-29T12:45:50.635Z,5.45
2019-03-29T12:50:56.750Z,7.30
2019-03-29T12:56:02.581Z,5.47
2019-03-29T13:01:08.487Z,4.45
2019-03-29T13:06:14.423Z,4.50
2019-03-29T13:11:22.379Z,4.97
2019-03-29T13:16:28.378Z,4.58
2019-03-29T13:21:34.304Z,4.90
2019-03-29T13:26:40.561Z,4.75
2019-03-29T13:31:46.775Z,5.13
2019-03-29T13:36:52.741Z,6.97
2019-03-29T13:41:58.762Z,5.00
2019-03-29T13:47:04.793Z,5.60
2019-03-29T13:52:10.616Z,6.90
2019-03-29T13:57:16.729Z,6.03
2019-03-29T14:02:22.722Z,5.17
2019-03-29T14:07:28.682Z,5.53
2019-03-29T14:12:34.678Z,6.03
2019-03-29T14:17:40.614Z,5.85
2019-03-29T14:22:46.879Z,6.03
2019-03-29T14:33:41.304Z,5.60
2019-03-29T14:38:47.282Z,5.37
2019-03-29T14:43:53.242Z,4.62
2019-03-29T14:48:59.248Z,4.28
2019-03-29T14:54:05.291Z,3.80
2019-03-29T14:59:11.400Z,3.35
2019-03-29T15:04:17.257Z,4.33
2019-03-29T15:09:23.298Z,4.37
2019-03-29T15:14:29.168Z,4.60
2019-03-29T15:19:35.048Z,5.80
2019-03-29T15:24:40.943Z,3.45
2019-03-29T15:29:47.135Z,4.28
2019-03-29T15:34:54.446Z,3.90
2019-03-29T15:40:00.461Z,3.30
2019-03-29T15:45:19.779Z,4.50
2019-03-29T15:50:15.022Z,3.30
2019-03-29T15:55:20.817Z,3.40
2019-03-29T16:00:26.662Z,3.30
2019-03-29T16:05:32.683Z,3.35
2019-03-29T16:10:41.278Z,3.98
2019-03-29T16:15:46.454Z,4.00
2019-03-29T16:20:52.322Z,3.60
2019-03-29T16:25:58.246Z,5.95
2019-03-29T16:31:04.076Z,5.95
2019-03-29T16:36:09.979Z,4.37
2019-03-29T16:41:15.955Z,8.13
2019-03-29T16:46:21.739Z,5.72
2019-03-29T16:51:27.799Z,4.17
2019-03-29T16:56:34.084Z,4.00
2019-03-29T17:01:40.417Z,3.87
2019-03-29T17:06:46.455Z,4.53
2019-03-29T17:11:52.266Z,4.57
2019-03-29T17:16:58.293Z,4.87
2019-03-29T17:22:04.198Z,3.80
2019-03-29T17:27:10.059Z,3.47
2019-03-29T17:32:17.488Z,3.55
2019-03-29T17:37:23.913Z,4.58
2019-03-29T17:42:30.393Z,4.12
2019-03-29T17:47:36.251Z,4.70
2019-03-29T17:52:42.399Z,4.28
2019-03-29T17:57:49.325Z,3.93
2019-03-29T18:02:55.508Z,8.95
2019-03-29T18:08:01.551Z,7.42
2019-03-29T18:13:07.700Z,28.05
2019-03-29T18:18:14.687Z,18.17
2019-03-29T18:23:20.575Z,12.03
2019-03-29T18:28:28.057Z,10.20
2019-03-29T18:33:35.806Z,10.32
2019-03-29T18:38:43.038Z,10.13
2019-03-29T18:43:49.108Z,9.70
2019-03-29T18:48:55.471Z,7.63
2019-03-29T18:54:01.487Z,9.55
2019-03-29T18:59:07.376Z,8.60
2019-03-29T19:04:13.413Z,10.80
2019-03-29T19:09:20.531Z,8.07
2019-03-29T19:14:26.363Z,7.73
2019-03-29T19:19:33.219Z,11.95
2019-03-29T19:24:39.587Z,16.42
2019-03-29T19:29:45.934Z,18.33
2019-03-29T19:34:52.703Z,17.48
2019-03-29T19:39:58.561Z,38.15
2019-03-29T19:45:04.904Z,27.40
2019-03-29T19:50:12.276Z,10.82
2019-03-29T19:55:18.190Z,12.28
2019-03-29T20:00:36.703Z,13.55
2019-03-29T20:05:43.427Z,10.08
2019-03-29T20:10:50.382Z,11.12
2019-03-29T20:15:56.379Z,12.17
2019-03-29T20:21:02.391Z,8.33
2019-03-29T20:26:08.655Z,8.00
2019-03-29T20:31:14.463Z,9.58
2019-03-29T20:36:23.107Z,8.70
2019-03-29T20:41:29.279Z,9.67
2019-03-29T20:46:35.185Z,8.90
2019-03-29T20:51:41.422Z,7.45
2019-03-29T20:56:48.410Z,7.97
2019-03-29T21:01:54.864Z,9.03
2019-03-29T21:07:00.849Z,8.53
2019-03-29T21:12:07.693Z,8.50
2019-03-29T21:17:14.181Z,8.97
2019-03-29T21:22:20.538Z,9.85
2019-03-29T21:27:26.433Z,11.33
2019-03-29T21:38:46.019Z,15.27
2019-03-29T21:43:53.040Z,18.10
2019-03-29T21:48:59.556Z,14.38
2019-03-29T21:54:05.391Z,15.55
2019-03-29T21:59:11.386Z,9.45
2019-03-29T22:04:17.250Z,11.10
2019-03-29T22:09:36.388Z,10.57
2019-03-29T22:14:31.424Z,14.47
2019-03-29T22:19:37.937Z,13.68
2019-03-29T22:24:43.871Z,13.03
2019-03-29T22:29:49.784Z,13.43
2019-03-29T22:34:55.789Z,16.70
2019-03-29T22:40:02.000Z,16.52
2019-03-29T22:45:09.482Z,15.75
2019-03-29T22:50:16.193Z,16.80
2019-03-29T22:55:22.124Z,15.63
2019-03-29T23:00:39.434Z,13.62
2019-03-29T23:05:47.218Z,15.93
2019-03-29T23:10:53.217Z,16.77
2019-03-29T23:15:59.143Z,14.47
2019-03-29T23:21:05.291Z,12.07
2019-03-29T23:26:11.394Z,16.20
2019-03-29T23:31:17.345Z,18.02
2019-03-29T23:36:23.257Z,26.25
2019-03-29T23:41:29.225Z,31.42
2019-03-29T23:46:35.191Z,23.05
2019-03-29T23:51:41.140Z,23.65
2019-03-29T23:56:47.830Z,13.60
